Decoded Metar for TTPP (PORT-OF-SPAIN in TRINIDAD AND TOBAGO) (IATA:POS) | Meteo·Mobile Aviation Weather
aviador You're here:

TTPP Decoded Metar

PORT-OF-SPAIN in TRINIDAD AND TOBAGO
Report Time2018-08-21 11:00:00
UTC Time2018-08-21 12:10:41
Flight Rules Old
Wind100° at 04 kt
W.Decomp.*RWY 10: 3.9 kt HW 1.0 kt RCW
W.Rank100° ranks 1
Current wind is below 100° avg. (9.0)
Visibility9999 m
Phenomena:Recent Rain
Vicinity showers
Clouds:Scattered CB 008 Hf
Scattered 014 Hf
Expected CloudBase > 400 ft AGL from Temp-Dew spread
CeilingNone
Temp24°C (ISA +9)
Dew Point23°C (94% RH)
QNH1015 hPa
Density Alt1,407 ft
Elevation49 ft
Report Wrong Elevation
Raw Report
TTPP 211100Z 10004KT 9999 VCSH SCT008CB SCT014 24/23 Q1015 RERA NOSIG
RMK CB-NE E SE S SSW=

Extra information for TTPP:More info

Metar Taf Metar & Taf Last 4 Metars F.Rules Stats Wind Profile Meteogram Temp Stats Airport Information Weather charts Add Link Nearby VenuesMetar ALERT Operation Metar Decoded Social comments